EAI35C EIDW-EGPH

Flight info

Callsign EAI35C
Flight time N/A
Altitude 19000
Route ROTEV1N ROTEV P600 TUNSO
Aircraft AT76/M-SDFGIRY/S

Departure

Time N/A
Airport Dublin Airport (EIDW)

Arrival

Time 2026-05-05 22:50
Airport Edinburgh Airport (EGPH)
Time Latitude Longitude Altitude Speed Heading
2026-05-05 22:20 54.27411 -5.82140 17083 ft 294 kts 27°
2026-05-05 22:20 54.29158 -5.80385 17085 ft 295 kts 27°
2026-05-05 22:20 54.30927 -5.78608 17080 ft 295 kts 27°
2026-05-05 22:20 54.32695 -5.76827 17087 ft 295 kts 27°
2026-05-05 22:21 54.34464 -5.75051 17090 ft 295 kts 27°
2026-05-05 22:21 54.36230 -5.73268 17094 ft 295 kts 27°
2026-05-05 22:21 54.38002 -5.71483 17089 ft 295 kts 27°
2026-05-05 22:21 54.39766 -5.69699 17085 ft 295 kts 27°
2026-05-05 22:22 54.41534 -5.67911 17093 ft 295 kts 27°
2026-05-05 22:22 54.43304 -5.66122 17093 ft 295 kts 27°
2026-05-05 22:22 54.45070 -5.64329 17087 ft 295 kts 27°
2026-05-05 22:22 54.46840 -5.62539 17090 ft 295 kts 27°
2026-05-05 22:23 54.48606 -5.60746 17090 ft 295 kts 27°
2026-05-05 22:23 54.50373 -5.58950 17097 ft 295 kts 27°
2026-05-05 22:23 54.52141 -5.57152 17089 ft 295 kts 27°
2026-05-05 22:23 54.53907 -5.55349 17091 ft 295 kts 27°
2026-05-05 22:24 54.55676 -5.53551 17096 ft 295 kts 27°
2026-05-05 22:24 54.57443 -5.51747 17092 ft 295 kts 27°
2026-05-05 22:24 54.59211 -5.49943 17089 ft 295 kts 27°
2026-05-05 22:24 54.60976 -5.48137 17090 ft 295 kts 27°
2026-05-05 22:25 54.62741 -5.46328 17091 ft 295 kts 27°
2026-05-05 22:25 54.64508 -5.44522 17087 ft 295 kts 27°
2026-05-05 22:25 54.66273 -5.42711 17093 ft 295 kts 28°
2026-05-05 22:25 54.68018 -5.40921 17085 ft 295 kts 27°
2026-05-05 22:26 54.69781 -5.39107 17087 ft 295 kts 27°
2026-05-05 22:26 54.71557 -5.37278 17089 ft 295 kts 27°
2026-05-05 22:26 54.73324 -5.35463 17088 ft 295 kts 27°
2026-05-05 22:26 54.75091 -5.33641 17081 ft 295 kts 27°
2026-05-05 22:27 54.76814 -5.31863 17083 ft 295 kts 27°
2026-05-05 22:27 54.78579 -5.30041 17087 ft 296 kts 27°
2026-05-05 22:27 54.80344 -5.28213 17080 ft 296 kts 27°
2026-05-05 22:27 54.82112 -5.26388 17084 ft 296 kts 27°
2026-05-05 22:28 54.83876 -5.24559 17081 ft 296 kts 27°
2026-05-05 22:28 54.85642 -5.22727 17082 ft 296 kts 27°
2026-05-05 22:28 54.87406 -5.20896 17082 ft 296 kts 27°
2026-05-05 22:28 54.89170 -5.19059 17083 ft 296 kts 28°
2026-05-05 22:29 54.90937 -5.17226 17088 ft 296 kts 27°
2026-05-05 22:29 54.92702 -5.15388 17089 ft 296 kts 27°
2026-05-05 22:29 54.94466 -5.13547 17084 ft 296 kts 27°
2026-05-05 22:29 54.96234 -5.11703 17087 ft 296 kts 27°
2026-05-05 22:30 54.98000 -5.09855 17083 ft 296 kts 27°
2026-05-05 22:30 54.99768 -5.08011 17084 ft 296 kts 27°
2026-05-05 22:30 55.01510 -5.06187 17078 ft 296 kts 27°
2026-05-05 22:30 55.03289 -5.04294 17086 ft 294 kts 31°
2026-05-05 22:31 55.04801 -5.01919 17085 ft 299 kts 43°
2026-05-05 22:31 55.06238 -4.99285 17086 ft 301 kts 43°
2026-05-05 22:31 55.07715 -4.96703 17084 ft 300 kts 40°
2026-05-05 22:31 55.09254 -4.94240 17090 ft 300 kts 38°
2026-05-05 22:32 55.10814 -4.91820 17087 ft 300 kts 39°
2026-05-05 22:32 55.12363 -4.89377 17085 ft 300 kts 39°
2026-05-05 22:32 55.13905 -4.86915 17088 ft 300 kts 39°
2026-05-05 22:32 55.15448 -4.84458 17084 ft 300 kts 39°
2026-05-05 22:33 55.16989 -4.81998 17085 ft 300 kts 39°
2026-05-05 22:33 55.18532 -4.79535 17090 ft 300 kts 39°
2026-05-05 22:33 55.20071 -4.77073 17090 ft 300 kts 39°
2026-05-05 22:33 55.21612 -4.74612 17097 ft 300 kts 39°
2026-05-05 22:34 55.23151 -4.72147 17098 ft 300 kts 39°
2026-05-05 22:34 55.24691 -4.69679 17102 ft 300 kts 39°
2026-05-05 22:34 55.26231 -4.67208 17093 ft 300 kts 39°
2026-05-05 22:34 55.27770 -4.64734 17101 ft 300 kts 39°
2026-05-05 22:35 55.29310 -4.62259 17099 ft 300 kts 39°
2026-05-05 22:35 55.30851 -4.59774 17101 ft 301 kts 39°
2026-05-05 22:35 55.32391 -4.57297 17097 ft 301 kts 39°
2026-05-05 22:35 55.33929 -4.54809 17098 ft 301 kts 39°
2026-05-05 22:36 55.35470 -4.52324 17101 ft 301 kts 39°
2026-05-05 22:36 55.37008 -4.49835 17104 ft 301 kts 39°
2026-05-05 22:36 55.38027 -4.48188 17109 ft 301 kts 39°
2026-05-05 22:36 55.39565 -4.45691 17107 ft 301 kts 39°
2026-05-05 22:37 55.41105 -4.43199 17107 ft 301 kts 39°
2026-05-05 22:37 55.42644 -4.40698 17101 ft 301 kts 39°
2026-05-05 22:37 55.44184 -4.38194 17100 ft 301 kts 39°
2026-05-05 22:37 55.45721 -4.35692 17104 ft 301 kts 39°
2026-05-05 22:38 55.47260 -4.33184 17100 ft 301 kts 39°
2026-05-05 22:38 55.48795 -4.30681 17108 ft 301 kts 39°
2026-05-05 22:38 55.50340 -4.28156 16872 ft 308 kts 39°
2026-05-05 22:38 55.51678 -4.25960 16472 ft 304 kts 40°
2026-05-05 22:39 55.53196 -4.23477 16008 ft 291 kts 39°
2026-05-05 22:39 55.54653 -4.21098 15549 ft 281 kts 39°
2026-05-05 22:39 55.56074 -4.18772 15104 ft 276 kts 39°
2026-05-05 22:39 55.57469 -4.16479 14641 ft 272 kts 39°
2026-05-05 22:40 55.58846 -4.14216 14161 ft 269 kts 39°
2026-05-05 22:40 55.60205 -4.11977 13653 ft 266 kts 39°
2026-05-05 22:40 55.61554 -4.09759 13118 ft 263 kts 39°
2026-05-05 22:40 55.62891 -4.07559 12599 ft 261 kts 39°
2026-05-05 22:41 55.64219 -4.05385 12076 ft 259 kts 39°
2026-05-05 22:41 55.65540 -4.03227 11576 ft 257 kts 39°
2026-05-05 22:41 55.66851 -4.01082 11054 ft 256 kts 39°
2026-05-05 22:41 55.68155 -3.98949 10567 ft 254 kts 39°
2026-05-05 22:42 55.69452 -3.96830 10085 ft 253 kts 39°
2026-05-05 22:42 55.70739 -3.94724 9551 ft 251 kts 39°
2026-05-05 22:42 55.72021 -3.92632 9016 ft 249 kts 39°
2026-05-05 22:42 55.73293 -3.90565 8487 ft 247 kts 39°
2026-05-05 22:43 55.74539 -3.88547 7985 ft 246 kts 39°
2026-05-05 22:43 55.75786 -3.86489 7477 ft 243 kts 43°
2026-05-05 22:43 55.76902 -3.84239 6979 ft 243 kts 47°
2026-05-05 22:43 55.77965 -3.81922 6482 ft 241 kts 49°
2026-05-05 22:44 55.79019 -3.79620 5843 ft 240 kts 46°
2026-05-05 22:44 55.80091 -3.77443 5465 ft 229 kts 46°
2026-05-05 22:44 55.81105 -3.75350 5122 ft 218 kts 47°
2026-05-05 22:44 55.82046 -3.73304 4816 ft 209 kts 49°
2026-05-05 22:45 55.82917 -3.71297 4532 ft 201 kts 50°
2026-05-05 22:45 55.83736 -3.69333 4257 ft 194 kts 51°
2026-05-05 22:45 55.84525 -3.67406 3995 ft 192 kts 51°
2026-05-05 22:45 55.85287 -3.65517 3747 ft 189 kts 52°
2026-05-05 22:46 55.86037 -3.63610 3498 ft 187 kts 54°
2026-05-05 22:46 55.86707 -3.61596 3243 ft 186 kts 57°
2026-05-05 22:46 55.87357 -3.59645 2987 ft 185 kts 55°
2026-05-05 22:46 55.88044 -3.57676 2722 ft 184 kts 55°
2026-05-05 22:47 55.88703 -3.55754 2485 ft 183 kts 56°
2026-05-05 22:47 55.89348 -3.53837 2242 ft 176 kts 56°
2026-05-05 22:47 55.89964 -3.52030 2006 ft 166 kts 56°
2026-05-05 22:47 55.90556 -3.50307 1777 ft 154 kts 56°
2026-05-05 22:48 55.91081 -3.48767 1571 ft 134 kts 56°
2026-05-05 22:48 55.91530 -3.47450 1379 ft 119 kts 55°
2026-05-05 22:48 55.91970 -3.46189 1184 ft 119 kts 57°
2026-05-05 22:48 55.92391 -3.44961 1004 ft 117 kts 58°
2026-05-05 22:49 55.92810 -3.43771 848 ft 113 kts 58°
2026-05-05 22:49 55.93214 -3.42587 696 ft 110 kts 61°
2026-05-05 22:49 55.93597 -3.41413 523 ft 106 kts 62°
2026-05-05 22:49 55.93957 -3.40295 337 ft 105 kts 62°
2026-05-05 22:50 55.94360 -3.39142 261 ft 113 kts 62°
2026-05-05 22:50 55.94745 -3.38007 107 ft 97 kts 62°
2026-05-05 22:50 55.94981 -3.37306 103 ft 46 kts 58°
2026-05-05 22:50 55.95125 -3.36874 104 ft 36 kts 59°
2026-05-05 22:51 55.95246 -3.36519 103 ft 18 kts 59°
2026-05-05 22:51 55.95201 -3.36358 103 ft 14 kts 150°
2026-05-05 22:51 55.95119 -3.36337 103 ft 11 kts 229°
2026-05-05 22:51 55.95051 -3.36390 104 ft 12 kts 157°
2026-05-05 22:52 55.94979 -3.36305 104 ft 10 kts 147°
2026-05-05 22:52 55.94960 -3.36283 104 ft 0 kts 148°